sensor_id;sensor_type;location;lat;lon;timestamp;pressure;altitude;pressure_sealevel;temperature;humidity
72330;BME280;69154;52.076;5.110;2023-07-31T00:00:26;100978.51;;;15.40;42.05
72330;BME280;69154;52.076;5.110;2023-07-31T00:02:52;100971.34;;;16.89;39.75
72330;BME280;69154;52.076;5.110;2023-07-31T00:05:16;100975.41;;;15.31;42.52
72330;BME280;69154;52.076;5.110;2023-07-31T00:07:41;100964.20;;;15.81;42.44
72330;BME280;69154;52.076;5.110;2023-07-31T00:10:06;100966.77;;;14.31;44.54
72330;BME280;69154;52.076;5.110;2023-07-31T00:12:31;100959.11;;;15.93;42.66
72330;BME280;69154;52.076;5.110;2023-07-31T00:14:57;100953.85;;;15.32;42.56
72330;BME280;69154;52.076;5.110;2023-07-31T00:17:22;100952.76;;;16.67;41.37
72330;BME280;69154;52.076;5.110;2023-07-31T00:19:48;100951.88;;;17.38;41.26
72330;BME280;69154;52.076;5.110;2023-07-31T00:22:13;100948.42;;;16.57;40.98
72330;BME280;69154;52.076;5.110;2023-07-31T00:24:38;100956.81;;;15.38;44.15
72330;BME280;69154;52.076;5.110;2023-07-31T00:27:05;100952.81;;;16.65;40.48
72330;BME280;69154;52.076;5.110;2023-07-31T00:29:30;100949.07;;;16.36;41.67
72330;BME280;69154;52.076;5.110;2023-07-31T00:31:55;100955.91;;;15.39;42.26
72330;BME280;69154;52.076;5.110;2023-07-31T00:34:21;100957.76;;;14.91;44.20
72330;BME280;69154;52.076;5.110;2023-07-31T00:36:47;100957.28;;;15.00;44.73
72330;BME280;69154;52.076;5.110;2023-07-31T00:39:12;100962.92;;;15.73;43.54
72330;BME280;69154;52.076;5.110;2023-07-31T00:41:38;100955.80;;;15.41;44.00
72330;BME280;69154;52.076;5.110;2023-07-31T00:44:03;100956.96;;;15.56;43.25
72330;BME280;69154;52.076;5.110;2023-07-31T00:46:29;100954.38;;;15.61;44.11
72330;BME280;69154;52.076;5.110;2023-07-31T00:48:55;100953.80;;;15.90;43.32
72330;BME280;69154;52.076;5.110;2023-07-31T00:51:20;100955.41;;;15.20;44.27
72330;BME280;69154;52.076;5.110;2023-07-31T00:53:47;100952.13;;;15.32;45.19
72330;BME280;69154;52.076;5.110;2023-07-31T00:56:12;100950.79;;;15.57;43.91
72330;BME280;69154;52.076;5.110;2023-07-31T00:58:36;100953.43;;;15.48;44.10
72330;BME280;69154;52.076;5.110;2023-07-31T01:01:03;100949.86;;;16.65;41.58
72330;BME280;69154;52.076;5.110;2023-07-31T01:03:28;100943.15;;;14.13;45.50
72330;BME280;69154;52.076;5.110;2023-07-31T01:05:59;100950.95;;;15.40;43.42
72330;BME280;69154;52.076;5.110;2023-07-31T01:08:29;100949.94;;;16.63;42.39
72330;BME280;69154;52.076;5.110;2023-07-31T01:10:49;100950.68;;;15.90;43.55
72330;BME280;69154;52.076;5.110;2023-07-31T01:13:10;100947.83;;;16.03;41.92
72330;BME280;69154;52.076;5.110;2023-07-31T01:15:36;100948.93;;;16.54;41.92
72330;BME280;69154;52.076;5.110;2023-07-31T01:18:00;100944.19;;;15.59;42.59
72330;BME280;69154;52.076;5.110;2023-07-31T01:20:26;100948.42;;;16.38;42.46
72330;BME280;69154;52.076;5.110;2023-07-31T01:23:35;100945.40;;;15.85;43.11
72330;BME280;69154;52.076;5.110;2023-07-31T01:25:26;100948.63;;;14.97;44.55
72330;BME280;69154;52.076;5.110;2023-07-31T01:27:47;100950.66;;;16.23;42.88
72330;BME280;69154;52.076;5.110;2023-07-31T01:30:10;100950.69;;;15.06;43.89
72330;BME280;69154;52.076;5.110;2023-07-31T01:32:32;100952.30;;;15.69;44.26
72330;BME280;69154;52.076;5.110;2023-07-31T01:34:57;100946.19;;;15.42;43.84
72330;BME280;69154;52.076;5.110;2023-07-31T01:37:28;100944.97;;;15.23;43.87
72330;BME280;69154;52.076;5.110;2023-07-31T01:39:47;100950.45;;;14.69;44.44
72330;BME280;69154;52.076;5.110;2023-07-31T01:42:12;100954.49;;;15.96;42.73
72330;BME280;69154;52.076;5.110;2023-07-31T01:44:38;100953.45;;;16.97;41.69
72330;BME280;69154;52.076;5.110;2023-07-31T01:47:03;100950.48;;;15.06;44.13
72330;BME280;69154;52.076;5.110;2023-07-31T01:49:28;100954.76;;;14.89;45.91
72330;BME280;69154;52.076;5.110;2023-07-31T01:51:53;100950.09;;;14.37;45.75
72330;BME280;69154;52.076;5.110;2023-07-31T01:54:19;100945.24;;;14.29;46.09
72330;BME280;69154;52.076;5.110;2023-07-31T01:56:44;100939.67;;;15.64;44.35
72330;BME280;69154;52.076;5.110;2023-07-31T01:59:10;100936.58;;;15.03;43.68
72330;BME280;69154;52.076;5.110;2023-07-31T02:01:35;100929.33;;;14.53;44.85
72330;BME280;69154;52.076;5.110;2023-07-31T02:04:00;100927.04;;;14.48;44.24
72330;BME280;69154;52.076;5.110;2023-07-31T02:06:26;100922.73;;;14.34;44.67
72330;BME280;69154;52.076;5.110;2023-07-31T02:08:52;100920.21;;;15.55;42.88
72330;BME280;69154;52.076;5.110;2023-07-31T02:11:17;100913.55;;;15.91;41.67
72330;BME280;69154;52.076;5.110;2023-07-31T02:13:42;100907.58;;;17.26;39.46
72330;BME280;69154;52.076;5.110;2023-07-31T02:16:07;100900.98;;;14.17;43.34
72330;BME280;69154;52.076;5.110;2023-07-31T02:18:33;100891.32;;;15.96;41.33
72330;BME280;69154;52.076;5.110;2023-07-31T02:20:58;100891.21;;;15.13;41.68
72330;BME280;69154;52.076;5.110;2023-07-31T02:23:23;100890.52;;;16.97;39.53
72330;BME280;69154;52.076;5.110;2023-07-31T02:25:48;100882.74;;;16.25;40.77
72330;BME280;69154;52.076;5.110;2023-07-31T02:28:13;100886.49;;;16.17;41.42
72330;BME280;69154;52.076;5.110;2023-07-31T02:30:39;100890.68;;;16.85;40.59
72330;BME280;69154;52.076;5.110;2023-07-31T02:33:05;100892.29;;;16.82;39.07
72330;BME280;69154;52.076;5.110;2023-07-31T02:35:31;100900.41;;;15.45;42.63
72330;BME280;69154;52.076;5.110;2023-07-31T02:38:01;100894.71;;;15.19;43.22
72330;BME280;69154;52.076;5.110;2023-07-31T02:40:21;100892.27;;;14.39;44.22
72330;BME280;69154;52.076;5.110;2023-07-31T02:42:47;100888.16;;;16.40;41.62
72330;BME280;69154;52.076;5.110;2023-07-31T02:45:13;100883.98;;;15.64;43.19
72330;BME280;69154;52.076;5.110;2023-07-31T02:47:39;100886.13;;;15.82;42.07
72330;BME280;69154;52.076;5.110;2023-07-31T02:50:04;100886.28;;;13.22;46.03
72330;BME280;69154;52.076;5.110;2023-07-31T02:52:30;100879.22;;;15.04;44.26
72330;BME280;69154;52.076;5.110;2023-07-31T02:54:55;100876.02;;;15.21;42.73
72330;BME280;69154;52.076;5.110;2023-07-31T02:57:21;100866.18;;;16.04;41.92
72330;BME280;69154;52.076;5.110;2023-07-31T02:59:46;100869.08;;;16.18;41.29
72330;BME280;69154;52.076;5.110;2023-07-31T03:02:12;100869.62;;;15.62;40.68
72330;BME280;69154;52.076;5.110;2023-07-31T03:04:37;100868.90;;;17.53;39.01
72330;BME280;69154;52.076;5.110;2023-07-31T03:07:02;100867.64;;;16.38;39.86
72330;BME280;69154;52.076;5.110;2023-07-31T03:09:27;100868.47;;;15.42;41.70
72330;BME280;69154;52.076;5.110;2023-07-31T03:11:53;100871.83;;;14.44;43.06
72330;BME280;69154;52.076;5.110;2023-07-31T03:14:18;100867.63;;;15.72;41.62
72330;BME280;69154;52.076;5.110;2023-07-31T03:16:44;100862.02;;;16.10;41.15
72330;BME280;69154;52.076;5.110;2023-07-31T03:19:10;100863.78;;;14.50;42.24
72330;BME280;69154;52.076;5.110;2023-07-31T03:21:35;100866.39;;;14.47;43.72
72330;BME280;69154;52.076;5.110;2023-07-31T03:24:01;100861.95;;;13.17;44.99
72330;BME280;69154;52.076;5.110;2023-07-31T03:26:27;100865.70;;;15.19;41.89
72330;BME280;69154;52.076;5.110;2023-07-31T03:28:52;100857.72;;;15.98;41.14
72330;BME280;69154;52.076;5.110;2023-07-31T03:31:23;100867.09;;;14.49;42.39
72330;BME280;69154;52.076;5.110;2023-07-31T03:33:43;100859.71;;;15.83;40.68
72330;BME280;69154;52.076;5.110;2023-07-31T03:36:09;100858.28;;;15.43;40.51
72330;BME280;69154;52.076;5.110;2023-07-31T03:38:34;100854.31;;;16.75;39.40
72330;BME280;69154;52.076;5.110;2023-07-31T03:40:59;100855.63;;;15.89;39.41
72330;BME280;69154;52.076;5.110;2023-07-31T03:43:25;100854.13;;;16.70;38.78
72330;BME280;69154;52.076;5.110;2023-07-31T03:45:50;100850.42;;;16.25;39.14
72330;BME280;69154;52.076;5.110;2023-07-31T03:48:16;100852.17;;;16.33;38.39
72330;BME280;69154;52.076;5.110;2023-07-31T03:50:41;100851.92;;;16.78;38.09
72330;BME280;69154;52.076;5.110;2023-07-31T03:53:07;100847.29;;;18.05;36.45
72330;BME280;69154;52.076;5.110;2023-07-31T03:55:34;100846.23;;;18.21;35.95
72330;BME280;69154;52.076;5.110;2023-07-31T03:57:58;100843.15;;;17.93;35.82
72330;BME280;69154;52.076;5.110;2023-07-31T04:00:24;100834.91;;;16.48;38.89
72330;BME280;69154;52.076;5.110;2023-07-31T04:02:50;100825.23;;;16.86;38.81
72330;BME280;69154;52.076;5.110;2023-07-31T04:05:15;100826.54;;;16.49;39.58
72330;BME280;69154;52.076;5.110;2023-07-31T04:07:41;100817.54;;;16.89;39.28
72330;BME280;69154;52.076;5.110;2023-07-31T04:10:07;100824.42;;;16.38;39.20
72330;BME280;69154;52.076;5.110;2023-07-31T04:12:32;100817.49;;;16.26;40.74
72330;BME280;69154;52.076;5.110;2023-07-31T04:14:58;100816.14;;;14.23;44.35
72330;BME280;69154;52.076;5.110;2023-07-31T04:17:23;100818.87;;;14.21;44.65
72330;BME280;69154;52.076;5.110;2023-07-31T04:19:49;100814.84;;;14.57;45.14
72330;BME280;69154;52.076;5.110;2023-07-31T04:22:14;100808.41;;;12.98;48.43
72330;BME280;69154;52.076;5.110;2023-07-31T04:24:39;100810.62;;;14.08;47.99
72330;BME280;69154;52.076;5.110;2023-07-31T04:27:05;100813.60;;;13.96;46.90
72330;BME280;69154;52.076;5.110;2023-07-31T04:29:30;100808.06;;;14.41;47.88
72330;BME280;69154;52.076;5.110;2023-07-31T04:31:56;100804.60;;;13.52;48.07
72330;BME280;69154;52.076;5.110;2023-07-31T04:34:21;100815.31;;;15.13;45.21
72330;BME280;69154;52.076;5.110;2023-07-31T04:36:47;100810.73;;;15.52;43.91
72330;BME280;69154;52.076;5.110;2023-07-31T04:39:11;100813.06;;;15.77;43.06
72330;BME280;69154;52.076;5.110;2023-07-31T04:41:37;100813.49;;;15.50;44.37
72330;BME280;69154;52.076;5.110;2023-07-31T04:44:02;100807.19;;;15.45;43.55
72330;BME280;69154;52.076;5.110;2023-07-31T04:46:28;100807.08;;;14.77;45.99
72330;BME280;69154;52.076;5.110;2023-07-31T04:48:53;100800.02;;;15.71;43.54
72330;BME280;69154;52.076;5.110;2023-07-31T04:51:19;100795.75;;;15.11;45.94
72330;BME280;69154;52.076;5.110;2023-07-31T04:53:44;100793.91;;;15.37;44.78
72330;BME280;69154;52.076;5.110;2023-07-31T04:56:09;100792.60;;;14.96;44.07
72330;BME280;69154;52.076;5.110;2023-07-31T04:58:35;100794.90;;;15.26;44.33
72330;BME280;69154;52.076;5.110;2023-07-31T05:01:00;100787.15;;;15.28;44.63
72330;BME280;69154;52.076;5.110;2023-07-31T05:03:25;100787.60;;;15.80;43.89
72330;BME280;69154;52.076;5.110;2023-07-31T05:05:51;100780.92;;;16.19;43.05
72330;BME280;69154;52.076;5.110;2023-07-31T05:08:16;100788.49;;;14.31;46.42
72330;BME280;69154;52.076;5.110;2023-07-31T05:10:41;100782.45;;;13.90;48.33
72330;BME280;69154;52.076;5.110;2023-07-31T05:13:07;100784.37;;;13.41;48.56
72330;BME280;69154;52.076;5.110;2023-07-31T05:15:32;100787.60;;;14.39;48.27
72330;BME280;69154;52.076;5.110;2023-07-31T05:17:57;100791.45;;;14.01;47.36
72330;BME280;69154;52.076;5.110;2023-07-31T05:20:22;100778.72;;;14.18;49.08
72330;BME280;69154;52.076;5.110;2023-07-31T05:22:47;100777.76;;;13.92;50.28
72330;BME280;69154;52.076;5.110;2023-07-31T05:25:13;100770.29;;;13.72;50.27
72330;BME280;69154;52.076;5.110;2023-07-31T05:27:38;100767.91;;;14.35;48.60
72330;BME280;69154;52.076;5.110;2023-07-31T05:30:04;100761.04;;;12.52;51.23
72330;BME280;69154;52.076;5.110;2023-07-31T05:32:28;100762.49;;;14.36;48.81
72330;BME280;69154;52.076;5.110;2023-07-31T05:34:54;100749.37;;;13.29;50.71
72330;BME280;69154;52.076;5.110;2023-07-31T05:37:19;100750.14;;;13.85;51.23
72330;BME280;69154;52.076;5.110;2023-07-31T05:39:45;100752.23;;;14.46;50.19
72330;BME280;69154;52.076;5.110;2023-07-31T05:42:09;100749.29;;;14.30;49.79
72330;BME280;69154;52.076;5.110;2023-07-31T05:44:34;100749.31;;;13.62;49.96
72330;BME280;69154;52.076;5.110;2023-07-31T05:46:59;100740.89;;;12.65;51.44
72330;BME280;69154;52.076;5.110;2023-07-31T05:49:25;100744.64;;;13.99;50.01
72330;BME280;69154;52.076;5.110;2023-07-31T05:51:50;100736.71;;;12.88;52.24
72330;BME280;69154;52.076;5.110;2023-07-31T05:54:16;100742.79;;;14.14;50.47
72330;BME280;69154;52.076;5.110;2023-07-31T05:56:41;100735.47;;;14.98;48.46
72330;BME280;69154;52.076;5.110;2023-07-31T05:59:06;100740.74;;;14.50;47.60
72330;BME280;69154;52.076;5.110;2023-07-31T06:01:31;100735.60;;;14.43;48.22
72330;BME280;69154;52.076;5.110;2023-07-31T06:03:56;100734.90;;;14.11;48.24
72330;BME280;69154;52.076;5.110;2023-07-31T06:06:21;100737.94;;;14.19;48.83
72330;BME280;69154;52.076;5.110;2023-07-31T06:08:47;100733.12;;;15.13;47.71
72330;BME280;69154;52.076;5.110;2023-07-31T06:11:12;100729.27;;;15.14;46.42
72330;BME280;69154;52.076;5.110;2023-07-31T06:13:36;100727.44;;;15.41;47.02
72330;BME280;69154;52.076;5.110;2023-07-31T06:16:01;100725.89;;;14.54;47.79
72330;BME280;69154;52.076;5.110;2023-07-31T06:18:26;100721.62;;;14.34;49.32
72330;BME280;69154;52.076;5.110;2023-07-31T06:20:51;100709.36;;;12.83;52.79
72330;BME280;69154;52.076;5.110;2023-07-31T06:23:16;100721.89;;;13.68;51.71
72330;BME280;69154;52.076;5.110;2023-07-31T06:25:41;100718.03;;;15.26;49.64
72330;BME280;69154;52.076;5.110;2023-07-31T06:28:06;100719.90;;;15.15;47.60
72330;BME280;69154;52.076;5.110;2023-07-31T06:30:31;100710.91;;;15.29;47.66
72330;BME280;69154;52.076;5.110;2023-07-31T06:32:56;100715.89;;;15.18;46.65
72330;BME280;69154;52.076;5.110;2023-07-31T06:35:21;100706.40;;;15.72;46.39
72330;BME280;69154;52.076;5.110;2023-07-31T06:37:47;100702.87;;;15.76;46.19
72330;BME280;69154;52.076;5.110;2023-07-31T06:40:11;100701.56;;;14.94;47.92
72330;BME280;69154;52.076;5.110;2023-07-31T06:42:37;100699.41;;;14.84;49.60
72330;BME280;69154;52.076;5.110;2023-07-31T06:45:03;100691.17;;;14.87;48.24
72330;BME280;69154;52.076;5.110;2023-07-31T06:47:28;100683.92;;;15.19;49.25
72330;BME280;69154;52.076;5.110;2023-07-31T06:49:55;100690.07;;;14.17;50.40
72330;BME280;69154;52.076;5.110;2023-07-31T06:52:20;100686.93;;;14.38;51.45
72330;BME280;69154;52.076;5.110;2023-07-31T06:55:00;100681.58;;;16.03;47.53
72330;BME280;69154;52.076;5.110;2023-07-31T06:57:11;100678.27;;;15.41;47.45
72330;BME280;69154;52.076;5.110;2023-07-31T06:59:36;100681.68;;;15.28;47.89
72330;BME280;69154;52.076;5.110;2023-07-31T07:02:03;100680.16;;;15.00;48.85
72330;BME280;69154;52.076;5.110;2023-07-31T07:04:28;100677.18;;;14.44;50.21
72330;BME280;69154;52.076;5.110;2023-07-31T07:06:54;100675.61;;;14.69;49.51
72330;BME280;69154;52.076;5.110;2023-07-31T07:09:19;100679.16;;;15.40;48.46
72330;BME280;69154;52.076;5.110;2023-07-31T07:11:46;100674.96;;;15.64;48.98
72330;BME280;69154;52.076;5.110;2023-07-31T07:14:11;100676.99;;;13.79;50.75
72330;BME280;69154;52.076;5.110;2023-07-31T07:16:37;100675.39;;;15.63;48.30
72330;BME280;69154;52.076;5.110;2023-07-31T07:19:03;100681.48;;;14.45;49.53
72330;BME280;69154;52.076;5.110;2023-07-31T07:21:29;100681.30;;;16.04;46.84
72330;BME280;69154;52.076;5.110;2023-07-31T07:23:55;100673.98;;;15.56;46.14
72330;BME280;69154;52.076;5.110;2023-07-31T07:26:20;100678.61;;;15.15;48.64
72330;BME280;69154;52.076;5.110;2023-07-31T07:28:47;100674.25;;;16.32;47.60
72330;BME280;69154;52.076;5.110;2023-07-31T07:31:12;100677.43;;;14.54;50.43
72330;BME280;69154;52.076;5.110;2023-07-31T07:33:38;100676.41;;;15.16;50.37
72330;BME280;69154;52.076;5.110;2023-07-31T07:36:04;100678.68;;;13.81;52.51
72330;BME280;69154;52.076;5.110;2023-07-31T07:38:29;100668.55;;;15.80;50.03
72330;BME280;69154;52.076;5.110;2023-07-31T07:40:55;100673.71;;;15.52;47.82
72330;BME280;69154;52.076;5.110;2023-07-31T07:43:21;100669.89;;;15.69;47.88
72330;BME280;69154;52.076;5.110;2023-07-31T07:45:47;100676.32;;;16.58;47.54
72330;BME280;69154;52.076;5.110;2023-07-31T07:48:13;100677.56;;;15.00;49.50
72330;BME280;69154;52.076;5.110;2023-07-31T07:50:39;100668.91;;;15.45;49.09
72330;BME280;69154;52.076;5.110;2023-07-31T07:53:04;100676.27;;;16.35;46.86
72330;BME280;69154;52.076;5.110;2023-07-31T07:55:30;100672.61;;;15.49;49.10
72330;BME280;69154;52.076;5.110;2023-07-31T07:57:56;100676.06;;;14.90;50.21
72330;BME280;69154;52.076;5.110;2023-07-31T08:00:21;100680.73;;;15.35;50.36
72330;BME280;69154;52.076;5.110;2023-07-31T08:02:47;100663.80;;;14.95;51.89
72330;BME280;69154;52.076;5.110;2023-07-31T08:05:13;100663.90;;;14.84;50.79
72330;BME280;69154;52.076;5.110;2023-07-31T08:07:39;100660.27;;;15.24;50.29
72330;BME280;69154;52.076;5.110;2023-07-31T08:10:06;100650.88;;;15.68;47.65
72330;BME280;69154;52.076;5.110;2023-07-31T08:12:31;100656.96;;;16.76;47.30
72330;BME280;69154;52.076;5.110;2023-07-31T08:14:56;100646.04;;;15.56;49.61
72330;BME280;69154;52.076;5.110;2023-07-31T08:17:23;100646.69;;;16.17;49.22
72330;BME280;69154;52.076;5.110;2023-07-31T08:19:47;100650.00;;;16.56;47.65
72330;BME280;69154;52.076;5.110;2023-07-31T08:22:14;100647.68;;;16.34;47.57
72330;BME280;69154;52.076;5.110;2023-07-31T08:24:39;100645.00;;;16.12;48.78
72330;BME280;69154;52.076;5.110;2023-07-31T08:27:06;100648.02;;;15.91;48.87
72330;BME280;69154;52.076;5.110;2023-07-31T08:29:31;100647.02;;;15.07;51.09
72330;BME280;69154;52.076;5.110;2023-07-31T08:31:56;100651.50;;;14.45;53.66
72330;BME280;69154;52.076;5.110;2023-07-31T08:34:22;100640.74;;;15.35;51.92
72330;BME280;69154;52.076;5.110;2023-07-31T08:36:48;100643.35;;;15.62;51.40
72330;BME280;69154;52.076;5.110;2023-07-31T08:39:14;100639.79;;;15.94;49.89
72330;BME280;69154;52.076;5.110;2023-07-31T08:41:40;100644.68;;;15.75;50.14
72330;BME280;69154;52.076;5.110;2023-07-31T08:44:06;100639.63;;;14.22;53.39
72330;BME280;69154;52.076;5.110;2023-07-31T08:46:32;100640.05;;;15.00;52.53
72330;BME280;69154;52.076;5.110;2023-07-31T08:48:58;100649.51;;;15.62;50.01
72330;BME280;69154;52.076;5.110;2023-07-31T08:51:23;100644.82;;;15.80;49.32
72330;BME280;69154;52.076;5.110;2023-07-31T08:53:48;100638.32;;;17.20;47.05
72330;BME280;69154;52.076;5.110;2023-07-31T08:56:15;100635.86;;;15.60;48.71
72330;BME280;69154;52.076;5.110;2023-07-31T08:58:41;100633.43;;;15.79;52.15
72330;BME280;69154;52.076;5.110;2023-07-31T09:01:07;100632.37;;;15.47;50.82
72330;BME280;69154;52.076;5.110;2023-07-31T09:03:34;100643.06;;;16.20;49.87
72330;BME280;69154;52.076;5.110;2023-07-31T09:05:57;100645.79;;;16.21;49.54
72330;BME280;69154;52.076;5.110;2023-07-31T09:08:26;100645.54;;;16.64;48.62
72330;BME280;69154;52.076;5.110;2023-07-31T09:10:49;100652.41;;;15.93;51.21
72330;BME280;69154;52.076;5.110;2023-07-31T09:13:15;100647.06;;;17.17;48.61
72330;BME280;69154;52.076;5.110;2023-07-31T09:15:44;100650.30;;;16.66;48.71
72330;BME280;69154;52.076;5.110;2023-07-31T09:18:07;100641.50;;;17.02;46.10
72330;BME280;69154;52.076;5.110;2023-07-31T09:20:32;100642.60;;;18.11;45.00
72330;BME280;69154;52.076;5.110;2023-07-31T09:23:05;100636.12;;;17.75;45.23
72330;BME280;69154;52.076;5.110;2023-07-31T09:25:24;100635.71;;;17.89;45.18
72330;BME280;69154;52.076;5.110;2023-07-31T09:27:50;100631.13;;;17.54;45.48
72330;BME280;69154;52.076;5.110;2023-07-31T09:30:15;100629.70;;;18.08;45.19
72330;BME280;69154;52.076;5.110;2023-07-31T09:32:42;100624.19;;;17.04;45.78
72330;BME280;69154;52.076;5.110;2023-07-31T09:35:14;100621.20;;;16.96;46.88
72330;BME280;69154;52.076;5.110;2023-07-31T09:37:32;100632.06;;;19.15;44.21
72330;BME280;69154;52.076;5.110;2023-07-31T09:39:58;100631.14;;;17.91;43.95
72330;BME280;69154;52.076;5.110;2023-07-31T09:42:25;100633.42;;;17.54;46.42
72330;BME280;69154;52.076;5.110;2023-07-31T09:44:50;100630.71;;;16.21;48.72
72330;BME280;69154;52.076;5.110;2023-07-31T09:47:23;100623.77;;;15.87;49.38
72330;BME280;69154;52.076;5.110;2023-07-31T09:49:46;100628.48;;;18.12;46.65
72330;BME280;69154;52.076;5.110;2023-07-31T09:52:11;100629.83;;;17.05;46.58
72330;BME280;69154;52.076;5.110;2023-07-31T09:54:32;100633.97;;;18.55;45.31
72330;BME280;69154;52.076;5.110;2023-07-31T09:56:59;100627.55;;;16.71;46.50
72330;BME280;69154;52.076;5.110;2023-07-31T09:59:24;100627.75;;;17.21;48.10
72330;BME280;69154;52.076;5.110;2023-07-31T10:01:50;100626.62;;;19.37;44.25
72330;BME280;69154;52.076;5.110;2023-07-31T10:04:17;100623.37;;;18.27;43.89
72330;BME280;69154;52.076;5.110;2023-07-31T10:06:43;100621.26;;;19.22;42.84
72330;BME280;69154;52.076;5.110;2023-07-31T10:09:09;100621.64;;;18.03;42.86
72330;BME280;69154;52.076;5.110;2023-07-31T10:11:37;100627.82;;;19.05;42.16
72330;BME280;69154;52.076;5.110;2023-07-31T10:13:59;100624.92;;;18.08;43.54
72330;BME280;69154;52.076;5.110;2023-07-31T10:16:24;100632.02;;;17.84;43.74
72330;BME280;69154;52.076;5.110;2023-07-31T10:18:50;100625.74;;;17.05;46.28
72330;BME280;69154;52.076;5.110;2023-07-31T10:21:16;100624.01;;;16.72;47.87
72330;BME280;69154;52.076;5.110;2023-07-31T10:23:43;100623.40;;;17.18;47.32
72330;BME280;69154;52.076;5.110;2023-07-31T10:26:08;100626.44;;;16.01;48.06
72330;BME280;69154;52.076;5.110;2023-07-31T10:28:34;100624.03;;;16.80;47.19
72330;BME280;69154;52.076;5.110;2023-07-31T10:30:59;100622.93;;;16.84;46.71
72330;BME280;69154;52.076;5.110;2023-07-31T10:33:25;100622.96;;;17.18;45.61
72330;BME280;69154;52.076;5.110;2023-07-31T10:35:51;100621.21;;;17.29;45.84
72330;BME280;69154;52.076;5.110;2023-07-31T10:38:16;100620.22;;;17.31;45.84
72330;BME280;69154;52.076;5.110;2023-07-31T10:40:42;100613.90;;;17.53;45.85
72330;BME280;69154;52.076;5.110;2023-07-31T10:43:08;100619.76;;;16.68;46.44
72330;BME280;69154;52.076;5.110;2023-07-31T10:45:36;100624.39;;;18.37;44.17
72330;BME280;69154;52.076;5.110;2023-07-31T10:48:01;100625.18;;;18.09;44.79
72330;BME280;69154;52.076;5.110;2023-07-31T10:50:26;100626.67;;;18.21;44.57
72330;BME280;69154;52.076;5.110;2023-07-31T10:52:52;100634.81;;;18.51;44.59
72330;BME280;69154;52.076;5.110;2023-07-31T10:55:27;100630.99;;;17.17;46.13
72330;BME280;69154;52.076;5.110;2023-07-31T10:57:44;100623.12;;;17.65;45.76
72330;BME280;69154;52.076;5.110;2023-07-31T11:00:26;100620.29;;;16.04;48.96
72330;BME280;69154;52.076;5.110;2023-07-31T11:02:34;100616.81;;;17.26;47.33
72330;BME280;69154;52.076;5.110;2023-07-31T11:05:08;100623.46;;;16.33;47.70
72330;BME280;69154;52.076;5.110;2023-07-31T11:07:26;100618.28;;;17.91;45.39
72330;BME280;69154;52.076;5.110;2023-07-31T11:09:51;100622.69;;;17.32;45.27
72330;BME280;69154;52.076;5.110;2023-07-31T11:12:17;100625.81;;;17.17;45.82
72330;BME280;69154;52.076;5.110;2023-07-31T11:14:43;100628.39;;;18.21;44.75
72330;BME280;69154;52.076;5.110;2023-07-31T11:17:09;100621.68;;;17.12;44.74
72330;BME280;69154;52.076;5.110;2023-07-31T11:19:37;100618.13;;;18.84;43.49
72330;BME280;69154;52.076;5.110;2023-07-31T11:22:01;100616.50;;;18.70;42.62
72330;BME280;69154;52.076;5.110;2023-07-31T11:24:27;100616.35;;;18.84;42.08
72330;BME280;69154;52.076;5.110;2023-07-31T11:26:52;100610.74;;;18.25;43.18
72330;BME280;69154;52.076;5.110;2023-07-31T11:29:18;100604.61;;;18.37;44.32
72330;BME280;69154;52.076;5.110;2023-07-31T11:31:43;100605.67;;;19.31;42.85
72330;BME280;69154;52.076;5.110;2023-07-31T11:34:09;100604.61;;;19.82;40.39
72330;BME280;69154;52.076;5.110;2023-07-31T11:36:35;100608.30;;;18.30;44.02
72330;BME280;69154;52.076;5.110;2023-07-31T11:39:04;100603.57;;;17.77;43.96
72330;BME280;69154;52.076;5.110;2023-07-31T11:41:29;100601.38;;;18.38;44.20
72330;BME280;69154;52.076;5.110;2023-07-31T11:43:59;100602.54;;;17.82;44.94
72330;BME280;69154;52.076;5.110;2023-07-31T11:46:18;100602.29;;;18.74;43.91
72330;BME280;69154;52.076;5.110;2023-07-31T11:48:44;100603.38;;;19.32;42.31
72330;BME280;69154;52.076;5.110;2023-07-31T11:51:10;100595.25;;;18.26;42.53
72330;BME280;69154;52.076;5.110;2023-07-31T11:53:41;100598.47;;;18.48;43.10
72330;BME280;69154;52.076;5.110;2023-07-31T11:56:02;100603.28;;;18.81;41.68
72330;BME280;69154;52.076;5.110;2023-07-31T11:58:27;100602.42;;;18.85;42.35
72330;BME280;69154;52.076;5.110;2023-07-31T12:00:53;100601.90;;;17.66;44.07
72330;BME280;69154;52.076;5.110;2023-07-31T12:03:18;100609.11;;;18.73;43.91
72330;BME280;69154;52.076;5.110;2023-07-31T12:05:45;100608.29;;;17.19;45.86
72330;BME280;69154;52.076;5.110;2023-07-31T12:08:11;100607.36;;;16.25;48.03
72330;BME280;69154;52.076;5.110;2023-07-31T12:10:36;100604.46;;;16.93;47.62
72330;BME280;69154;52.076;5.110;2023-07-31T12:13:04;100610.50;;;17.27;46.23
72330;BME280;69154;52.076;5.110;2023-07-31T12:15:30;100602.58;;;17.29;46.97
72330;BME280;69154;52.076;5.110;2023-07-31T12:17:53;100605.19;;;17.06;47.24
72330;BME280;69154;52.076;5.110;2023-07-31T12:20:20;100603.54;;;17.95;45.66
72330;BME280;69154;52.076;5.110;2023-07-31T12:22:45;100595.27;;;18.37;45.20
72330;BME280;69154;52.076;5.110;2023-07-31T12:25:15;100584.61;;;17.64;45.26
72330;BME280;69154;52.076;5.110;2023-07-31T12:27:35;100583.45;;;17.97;45.25
72330;BME280;69154;52.076;5.110;2023-07-31T12:30:01;100583.70;;;18.49;43.70
72330;BME280;69154;52.076;5.110;2023-07-31T12:32:30;100576.98;;;17.69;45.28
72330;BME280;69154;52.076;5.110;2023-07-31T12:34:52;100572.42;;;17.98;44.72
72330;BME280;69154;52.076;5.110;2023-07-31T12:37:18;100578.14;;;19.12;43.29
72330;BME280;69154;52.076;5.110;2023-07-31T12:39:44;100573.30;;;17.97;44.72